createdAt,value
2023-04-19T00:00:13.873Z,955.3190918
2023-04-19T00:01:15.454Z,955.3118896
2023-04-19T00:02:16.710Z,955.336853
2023-04-19T00:03:17.956Z,955.2718506
2023-04-19T00:04:19.043Z,955.2702637
2023-04-19T00:05:20.466Z,955.3426514
2023-04-19T00:06:21.899Z,955.3287354
2023-04-19T00:07:22.998Z,955.328125
2023-04-19T00:08:23.881Z,955.3465576
2023-04-19T00:09:25.365Z,955.3248291
2023-04-19T00:10:26.273Z,955.3092041
2023-04-19T00:11:27.857Z,955.3074951
2023-04-19T00:12:28.934Z,955.3470459
2023-04-19T00:13:29.871Z,955.3222046
2023-04-19T00:14:31.348Z,955.3286133
2023-04-19T00:15:33.483Z,955.3226318
2023-04-19T00:16:35.964Z,955.3496704
2023-04-19T00:18:07.899Z,955.3329468
2023-04-19T00:19:09.344Z,955.2857666
2023-04-19T00:20:10.307Z,955.3048706
2023-04-19T00:21:11.987Z,955.2960815
2023-04-19T00:22:13.534Z,955.3096924
2023-04-19T00:23:14.586Z,955.3187256
2023-04-19T00:24:15.731Z,955.2723389
2023-04-19T00:25:16.474Z,955.2993774
2023-04-19T00:26:18.496Z,955.2935181
2023-04-19T00:27:19.679Z,955.2539063
2023-04-19T00:28:20.631Z,955.2782593
2023-04-19T00:29:22.386Z,955.2609253
2023-04-19T00:30:23.415Z,955.257019
2023-04-19T00:31:24.616Z,955.1970215
2023-04-19T00:32:26.510Z,955.2365723
2023-04-19T00:33:28.375Z,955.1766357
2023-04-19T00:34:29.278Z,955.2463989
2023-04-19T00:35:30.893Z,955.1835938
2023-04-19T00:36:32.866Z,955.2457886
2023-04-19T00:37:34.021Z,955.2338257
2023-04-19T00:39:06.368Z,955.2148438
2023-04-19T00:40:08.318Z,955.2453003
2023-04-19T00:41:10.102Z,955.2473145
2023-04-19T00:42:11.896Z,955.2143555
2023-04-19T00:43:13.999Z,955.2419434
2023-04-19T00:44:15.305Z,955.2446289
2023-04-19T00:45:16.027Z,955.2407837
2023-04-19T00:46:18.009Z,955.2623291
2023-04-19T00:47:19.937Z,955.2406006
2023-04-19T00:48:21.049Z,955.2508545
2023-04-19T00:49:22.926Z,955.265564
2023-04-19T00:50:23.949Z,955.2783813
2023-04-19T00:51:26.012Z,955.2459106
2023-04-19T00:52:27.026Z,955.2521362
2023-04-19T00:53:28.191Z,955.2092896
2023-04-19T00:54:29.256Z,955.2039185
2023-04-19T00:55:30.386Z,955.2345581
2023-04-19T00:56:31.968Z,955.2263794
2023-04-19T00:57:32.996Z,955.1636963
2023-04-19T00:58:34.437Z,955.1829834
2023-04-19T01:00:06.004Z,955.163269
2023-04-19T01:01:08.027Z,955.1785889
2023-04-19T01:02:09.148Z,955.1472168
2023-04-19T01:03:10.206Z,955.1362305
2023-04-19T01:04:11.965Z,955.1556396
2023-04-19T01:05:12.913Z,955.1707764
2023-04-19T01:06:15.002Z,955.1193848
2023-04-19T01:07:16.841Z,955.1442261
2023-04-19T01:08:17.759Z,955.1229858
2023-04-19T01:09:18.957Z,955.1062622
2023-04-19T01:10:21.063Z,955.0985718
2023-04-19T01:11:22.970Z,955.0847168
2023-04-19T01:12:23.872Z,955.0893555
2023-04-19T01:13:25.383Z,955.0574951
2023-04-19T01:14:26.476Z,955.0650024
2023-04-19T01:15:27.498Z,955.0606079
2023-04-19T01:16:29.716Z,955.0692139
2023-04-19T01:17:31.450Z,955.0254517
2023-04-19T01:18:32.451Z,955.055603
2023-04-19T01:19:33.511Z,955.02948
2023-04-19T01:21:06.317Z,955.0714111
2023-04-19T01:22:07.298Z,955.0724487
2023-04-19T01:23:08.237Z,955.0879517
2023-04-19T01:24:09.951Z,955.069519
2023-04-19T01:25:10.973Z,955.0872803
2023-04-19T01:26:14.138Z,955.0559082
2023-04-19T01:27:15.239Z,955.0581055
2023-04-19T01:28:16.333Z,955.0289307
2023-04-19T01:29:18.008Z,955.0910034
2023-04-19T01:30:19.216Z,955.0865479
2023-04-19T01:31:21.405Z,955.0206909
2023-04-19T01:32:22.533Z,955.041748
2023-04-19T01:33:23.549Z,955.0315552
2023-04-19T01:34:24.627Z,955.0274048
2023-04-19T01:35:25.888Z,955.0170288
2023-04-19T01:36:28.505Z,955.0661011
2023-04-19T01:37:29.582Z,955.0406494
2023-04-19T01:38:31.599Z,955.0319824
2023-04-19T01:39:33.449Z,955.0615845
2023-04-19T01:41:06.069Z,955.0420532
2023-04-19T01:42:07.135Z,955.1112671
2023-04-19T01:43:08.985Z,955.0303345
2023-04-19T01:44:10.024Z,955.0432739
2023-04-19T01:45:11.974Z,955.0465698
2023-04-19T01:46:14.102Z,955.0491333
2023-04-19T01:47:16.081Z,955.022644
2023-04-19T01:48:17.232Z,955.0551758
2023-04-19T01:49:18.357Z,955.0258789
2023-04-19T01:50:19.471Z,955.0635986
2023-04-19T01:51:21.519Z,955.0756226
2023-04-19T01:52:23.364Z,955.024231
2023-04-19T01:53:24.477Z,955.0198364
2023-04-19T01:54:26.465Z,955.022644
2023-04-19T01:55:27.478Z,955.0337524
2023-04-19T01:56:30.433Z,954.9888306
2023-04-19T01:57:31.395Z,955.0197144
2023-04-19T01:58:32.504Z,954.977417
2023-04-19T01:59:33.964Z,955.0217285
2023-04-19T02:01:06.468Z,954.9730225
2023-04-19T02:02:07.580Z,955.0119629
2023-04-19T02:03:08.698Z,954.9742432
2023-04-19T02:04:09.706Z,955.0042725
2023-04-19T02:05:10.678Z,955.0075073
2023-04-19T02:06:12.509Z,955.0065918
2023-04-19T02:07:14.485Z,955.0362549
2023-04-19T02:08:15.586Z,955.0214844
2023-04-19T02:09:17.494Z,955.0635376
2023-04-19T02:10:18.702Z,955.0192261
2023-04-19T02:11:20.370Z,955.024231
2023-04-19T02:12:21.462Z,955.038208
2023-04-19T02:13:22.480Z,955.0706177
2023-04-19T02:14:23.617Z,955.0740356
2023-04-19T02:15:24.653Z,955.0630493
2023-04-19T02:16:26.388Z,955.0291138
2023-04-19T02:17:28.066Z,955.0437622
2023-04-19T02:18:29.017Z,955.0626831
2023-04-19T02:19:30.994Z,955.0557861
2023-04-19T02:20:32.919Z,955.0754395
2023-04-19T02:22:05.392Z,955.0750122
2023-04-19T02:23:07.422Z,955.0706177
2023-04-19T02:24:09.588Z,955.0430298
2023-04-19T02:25:10.644Z,955.0560913
2023-04-19T02:26:12.500Z,955.03125
2023-04-19T02:27:14.313Z,955.055603
2023-04-19T02:28:15.420Z,955.0567017
2023-04-19T02:29:16.558Z,955.0826416
2023-04-19T02:30:17.646Z,955.0183105
2023-04-19T02:31:19.364Z,955.0371704
2023-04-19T02:32:20.365Z,955.0239258
2023-04-19T02:33:21.503Z,955.0292358
2023-04-19T02:34:22.584Z,955.0264893
2023-04-19T02:35:23.568Z,955.0232544
2023-04-19T02:36:25.484Z,955.0421753
2023-04-19T02:37:27.392Z,955.0083008
2023-04-19T02:38:28.549Z,955.0070801
2023-04-19T02:39:30.488Z,955.0187378
2023-04-19T02:40:31.572Z,955.0131836
2023-04-19T02:42:04.306Z,954.9993896
2023-04-19T02:43:05.279Z,955.0048218
2023-04-19T02:44:06.909Z,955.0119019
2023-04-19T02:45:07.967Z,954.9726563
2023-04-19T02:46:10.094Z,954.986145
2023-04-19T02:47:11.809Z,955.0245361
2023-04-19T02:48:13.935Z,955.0484619
2023-04-19T02:49:14.839Z,955.0354614
2023-04-19T02:50:15.920Z,955.0025635
2023-04-19T02:51:17.885Z,955.0193481
2023-04-19T02:52:19.380Z,954.9951782
2023-04-19T02:53:20.362Z,955.007019
2023-04-19T02:54:21.353Z,955.0098267
2023-04-19T02:55:22.439Z,955.0195923
2023-04-19T02:56:24.342Z,955.0093994
2023-04-19T02:57:25.864Z,954.9720459
2023-04-19T02:58:26.935Z,954.9590454
2023-04-19T02:59:28.026Z,954.9725952
2023-04-19T03:00:29.983Z,955.0098267
2023-04-19T03:01:31.941Z,955.026001
2023-04-19T03:02:34.054Z,955.0496826
2023-04-19T03:04:05.432Z,955.0112305
2023-04-19T03:05:06.542Z,955.0020142
2023-04-19T03:06:08.443Z,954.9993896
2023-04-19T03:07:10.374Z,954.9718628
2023-04-19T03:08:12.424Z,954.9464111
2023-04-19T03:09:14.506Z,954.9529419
2023-04-19T03:10:15.534Z,954.9681396
2023-04-19T03:11:17.288Z,954.9870605
2023-04-19T03:12:18.415Z,955.0145874
2023-04-19T03:13:19.450Z,954.9865112
2023-04-19T03:14:20.433Z,955.0270996
2023-04-19T03:15:21.629Z,954.9742432
2023-04-19T03:16:23.494Z,954.9908447
2023-04-19T03:17:25.143Z,954.993103
2023-04-19T03:18:26.921Z,955.0109253
2023-04-19T03:19:27.934Z,955.0070801
2023-04-19T03:20:29.000Z,954.9812622
2023-04-19T03:21:30.847Z,954.9759521
2023-04-19T03:22:31.845Z,954.9735718
2023-04-19T03:23:33.287Z,954.968811
2023-04-19T03:25:04.978Z,955.0116577
2023-04-19T03:26:06.939Z,954.9689331
2023-04-19T03:27:07.974Z,954.9849854
2023-04-19T03:28:10.024Z,955.0116577
2023-04-19T03:29:11.006Z,954.9981079
2023-04-19T03:30:12.036Z,954.9868164
2023-04-19T03:31:14.101Z,955.0098267
2023-04-19T03:32:15.126Z,954.9932861
2023-04-19T03:33:16.990Z,954.9899902
2023-04-19T03:34:18.880Z,955.0100098
2023-04-19T03:35:20.002Z,954.9364014
2023-04-19T03:36:21.822Z,954.9796753
2023-04-19T03:37:23.372Z,954.9904785
2023-04-19T03:38:24.520Z,954.9515381
2023-04-19T03:39:26.447Z,954.9710693
2023-04-19T03:40:27.457Z,954.9609375
2023-04-19T03:41:29.284Z,954.9668579
2023-04-19T03:42:30.235Z,954.9603271
2023-04-19T03:43:31.920Z,954.942627
2023-04-19T03:45:03.795Z,954.9551392
2023-04-19T03:46:05.392Z,954.9124756
2023-04-19T03:47:06.257Z,954.9254761
2023-04-19T03:48:07.917Z,954.8947754
2023-04-19T03:49:08.912Z,954.9146118
2023-04-19T03:50:09.888Z,954.9406128
2023-04-19T03:51:11.848Z,954.9341431
2023-04-19T03:52:13.579Z,954.9589233
2023-04-19T03:53:14.497Z,954.9364014
2023-04-19T03:54:15.746Z,954.9514771
2023-04-19T03:55:16.521Z,954.9412231
2023-04-19T03:56:18.366Z,954.9142456
2023-04-19T03:57:19.920Z,954.8942871
2023-04-19T03:58:21.036Z,954.8515625
2023-04-19T03:59:22.126Z,954.8824463
2023-04-19T04:00:23.126Z,954.8640747
2023-04-19T04:01:24.996Z,954.8651733
2023-04-19T04:02:26.189Z,954.8392334
2023-04-19T04:03:28.160Z,954.8517456
2023-04-19T04:04:29.329Z,954.9003906
2023-04-19T04:05:30.440Z,954.8982544
2023-04-19T04:06:32.741Z,954.8723145
2023-04-19T04:08:04.915Z,954.9036865
2023-04-19T04:09:05.972Z,954.9171143
2023-04-19T04:10:07.976Z,954.9025269
2023-04-19T04:11:09.056Z,954.8814087
2023-04-19T04:12:10.898Z,954.8967285
2023-04-19T04:13:12.898Z,954.9035645
2023-04-19T04:14:14.131Z,954.9031372
2023-04-19T04:15:14.955Z,954.918457
2023-04-19T04:16:16.942Z,954.9042358
2023-04-19T04:17:18.534Z,954.899353
2023-04-19T04:18:19.606Z,954.9206543
2023-04-19T04:19:21.383Z,954.923645
2023-04-19T04:20:22.377Z,954.925415
2023-04-19T04:21:23.933Z,954.9168701
2023-04-19T04:22:24.843Z,954.9481201
2023-04-19T04:23:25.891Z,954.9525146
2023-04-19T04:24:27.935Z,954.9671021
2023-04-19T04:25:29.092Z,954.9639282
2023-04-19T04:26:30.871Z,955.0455322
2023-04-19T04:27:32.398Z,955.0326538
2023-04-19T04:29:04.049Z,954.9920044
2023-04-19T04:30:05.061Z,955.00354
2023-04-19T04:31:07.004Z,955.0114136
2023-04-19T04:32:08.096Z,954.9741211
2023-04-19T04:33:09.937Z,954.909668
2023-04-19T04:34:10.955Z,954.9454956
2023-04-19T04:35:12.108Z,954.9093018
2023-04-19T04:36:14.003Z,954.897522
2023-04-19T04:37:15.029Z,954.9671021
2023-04-19T04:38:24.077Z,954.9643555
2023-04-19T04:39:17.850Z,954.9710083
2023-04-19T04:40:19.443Z,955.0072021
2023-04-19T04:41:22.668Z,954.9979858
2023-04-19T04:42:22.647Z,955.0029907
2023-04-19T04:43:23.755Z,954.9958496
2023-04-19T04:44:25.794Z,954.9958496
2023-04-19T04:45:26.753Z,955.0007935
2023-04-19T04:46:28.622Z,954.9959106
2023-04-19T04:47:29.681Z,955.0001831
2023-04-19T04:48:31.380Z,955.0023193
2023-04-19T04:50:04.024Z,955.0234985
2023-04-19T04:51:05.893Z,955.019043
2023-04-19T04:52:07.040Z,955.0770264
2023-04-19T04:53:07.972Z,955.0370483
2023-04-19T04:54:09.255Z,955.0526733
2023-04-19T04:55:10.433Z,955.0359497
2023-04-19T04:56:12.463Z,955.0176392
2023-04-19T04:57:13.935Z,955.0473633
2023-04-19T04:58:15.770Z,955.0186768
2023-04-19T04:59:16.812Z,955.029541
2023-04-19T05:00:18.441Z,955.1052856
2023-04-19T05:01:20.657Z,955.0279541
2023-04-19T05:02:21.596Z,955.0527954
2023-04-19T05:03:23.520Z,955.0473633
2023-04-19T05:04:24.801Z,954.9987793
2023-04-19T05:05:26.074Z,955.0148315
2023-04-19T05:06:28.091Z,954.9976807
2023-04-19T05:07:29.122Z,954.9997559
2023-04-19T05:08:31.051Z,954.9987793
2023-04-19T05:10:04.050Z,955.0003662
2023-04-19T05:11:06.019Z,954.996582
2023-04-19T05:12:07.119Z,955.0159912
2023-04-19T05:13:08.673Z,955.0095215
2023-04-19T05:14:10.415Z,954.987793
2023-04-19T05:15:11.595Z,955.0197144
2023-04-19T05:16:13.790Z,955.0061646
2023-04-19T05:17:14.857Z,955.0144043
2023-04-19T05:18:16.461Z,954.9656982
2023-04-19T05:19:17.673Z,954.9863281
2023-04-19T05:20:19.531Z,954.970459
2023-04-19T05:21:21.546Z,954.9710693
2023-04-19T05:22:22.474Z,954.954895
2023-04-19T05:23:24.531Z,954.979248
2023-04-19T05:24:25.572Z,955.0256348
2023-04-19T05:25:26.796Z,955.0175781
2023-04-19T05:26:28.533Z,955.0360718
2023-04-19T05:27:29.753Z,955.0133667
2023-04-19T05:28:31.949Z,955.0072021
2023-04-19T05:30:03.616Z,955.0245361
2023-04-19T05:31:05.391Z,955.0100098
2023-04-19T05:32:06.455Z,954.9797363
2023-04-19T05:33:07.706Z,954.9970093
2023-04-19T05:34:09.570Z,955.0256348
2023-04-19T05:35:10.728Z,955.0376587
2023-04-19T05:36:12.963Z,954.9932251
2023-04-19T05:37:13.884Z,954.9665527
2023-04-19T05:38:15.937Z,955.0072021
2023-04-19T05:39:17.965Z,955.0559082
2023-04-19T05:40:19.108Z,955.0310059
2023-04-19T05:41:21.024Z,955.0783081
2023-04-19T05:42:22.128Z,955.1057739
2023-04-19T05:43:23.939Z,955.0834961
2023-04-19T05:44:25.046Z,955.0964966
2023-04-19T05:45:26.201Z,955.1394043
2023-04-19T05:46:28.040Z,955.1052856
2023-04-19T05:47:29.285Z,955.097168
2023-04-19T05:48:30.937Z,955.0646362
2023-04-19T05:50:03.751Z,955.0597534
2023-04-19T05:51:05.447Z,955.1013184
2023-04-19T05:52:06.782Z,955.0890503
2023-04-19T05:53:07.803Z,955.0845337
2023-04-19T05:54:08.963Z,955.1236572
2023-04-19T05:55:10.054Z,955.0770264
2023-04-19T05:56:11.955Z,955.0748291
2023-04-19T05:57:12.984Z,955.0791626
2023-04-19T05:58:14.935Z,955.1009521
2023-04-19T05:59:16.101Z,955.0753784
2023-04-19T06:00:17.924Z,955.086853
2023-04-19T06:01:19.559Z,955.0985718
2023-04-19T06:02:20.855Z,955.111084
2023-04-19T06:03:21.673Z,955.0959473
2023-04-19T06:04:24.063Z,955.0964355
2023-04-19T06:05:24.551Z,955.0640869
2023-04-19T06:06:25.991Z,955.0893555
2023-04-19T06:07:31.802Z,955.0595093
2023-04-19T06:08:28.404Z,955.0504761
2023-04-19T06:09:30.451Z,955.0878906
2023-04-19T06:11:11.909Z,955.0423584
2023-04-19T06:12:03.948Z,955.0829468
2023-04-19T06:13:04.909Z,955.0871582
2023-04-19T06:14:05.965Z,955.1257935
2023-04-19T06:15:07.360Z,955.1062622
2023-04-19T06:16:09.095Z,955.1256104
2023-04-19T06:17:10.425Z,955.0857544
2023-04-19T06:18:19.394Z,955.1185913
2023-04-19T06:19:16.961Z,955.1257324
2023-04-19T06:20:18.606Z,955.1202393
2023-04-19T06:21:21.261Z,955.1152954
2023-04-19T06:22:23.139Z,955.117981
2023-04-19T06:23:25.929Z,955.1268921
2023-04-19T06:24:28.062Z,955.1229858
2023-04-19T06:25:30.687Z,955.0640869
2023-04-19T06:27:05.353Z,955.0942993
2023-04-19T06:28:06.428Z,955.0818481
2023-04-19T06:29:11.092Z,955.0822144
2023-04-19T06:30:12.992Z,955.027832
2023-04-19T06:31:15.462Z,955.0839233
2023-04-19T06:32:16.519Z,955.1277466
2023-04-19T06:33:18.225Z,955.1304932
2023-04-19T06:34:20.178Z,955.1314697
2023-04-19T06:35:21.458Z,955.1266479
2023-04-19T06:36:23.524Z,955.0959473
2023-04-19T06:37:24.623Z,955.1102905
2023-04-19T06:38:27.025Z,955.1564941
2023-04-19T06:39:29.098Z,955.1498413
2023-04-19T06:40:31.390Z,955.1304932
2023-04-19T06:42:04.414Z,955.1461182
2023-04-19T06:43:06.713Z,955.1397095
2023-04-19T06:44:08.030Z,955.1715088
2023-04-19T06:45:09.098Z,955.1704712
2023-04-19T06:46:10.995Z,955.1856079
2023-04-19T06:47:12.269Z,955.1867065
2023-04-19T06:48:13.750Z,955.1796875
2023-04-19T06:49:15.734Z,955.2195435
2023-04-19T06:50:16.742Z,955.1942749
2023-04-19T06:51:18.388Z,955.1564331
2023-04-19T06:52:19.387Z,955.1931152
2023-04-19T06:53:20.568Z,955.2614136
2023-04-19T06:54:24.410Z,955.2109985
2023-04-19T06:55:25.506Z,955.2435303
2023-04-19T06:56:27.559Z,955.2704468
2023-04-19T06:57:28.710Z,955.2591553
2023-04-19T06:58:31.784Z,955.2601318
2023-04-19T07:00:02.234Z,955.3062744
2023-04-19T07:01:04.097Z,955.2839355
2023-04-19T07:02:06.055Z,955.2937622
2023-04-19T07:03:07.495Z,955.3326416
2023-04-19T07:04:09.601Z,955.3620605
2023-04-19T07:05:10.496Z,955.315918
2023-04-19T07:06:12.624Z,955.3023682
2023-04-19T07:07:13.935Z,955.3267822
2023-04-19T07:08:15.066Z,955.3446655
2023-04-19T07:09:17.174Z,955.2937622
2023-04-19T07:10:19.084Z,955.2915649
2023-04-19T07:11:22.447Z,955.3640137
2023-04-19T07:12:21.929Z,955.3251343
2023-04-19T07:13:22.882Z,955.3164063
2023-04-19T07:14:24.181Z,955.3151855
2023-04-19T07:15:24.979Z,955.319519
2023-04-19T07:16:27.056Z,955.3591919
2023-04-19T07:17:27.886Z,955.3114624
2023-04-19T07:18:28.980Z,955.3244629
2023-04-19T07:20:01.882Z,955.3082886
2023-04-19T07:21:02.834Z,955.2923584
2023-04-19T07:22:03.781Z,955.2817383
2023-04-19T07:23:05.468Z,955.2453613
2023-04-19T07:24:06.537Z,955.2912598
2023-04-19T07:25:07.563Z,955.2751465
2023-04-19T07:26:09.416Z,955.2800903
2023-04-19T07:27:10.344Z,955.2739258
2023-04-19T07:28:11.966Z,955.298645
2023-04-19T07:29:13.986Z,955.263916
2023-04-19T07:30:15.872Z,955.2575073
2023-04-19T07:31:17.542Z,955.2770386
2023-04-19T07:32:18.754Z,955.2910767
2023-04-19T07:33:19.557Z,955.2595825
2023-04-19T07:34:20.424Z,955.2720337
2023-04-19T07:35:21.460Z,955.2584229
2023-04-19T07:36:22.900Z,955.246582
2023-04-19T07:37:23.988Z,955.2801514
2023-04-19T07:38:25.819Z,955.2438354
2023-04-19T07:39:27.325Z,955.2773438
2023-04-19T07:40:28.901Z,955.2426758
2023-04-19T07:41:31.219Z,955.2631836
2023-04-19T07:43:02.718Z,955.2734375
2023-04-19T07:44:04.376Z,955.2835693
2023-04-19T07:45:05.327Z,955.2966919
2023-04-19T07:46:06.989Z,955.3032837
2023-04-19T07:47:08.909Z,955.2961426
2023-04-19T07:48:09.780Z,955.293335
2023-04-19T07:49:10.744Z,955.2888794
2023-04-19T07:50:12.608Z,955.2878418
2023-04-19T07:51:15.401Z,955.3375854
2023-04-19T07:52:16.511Z,955.3185425
2023-04-19T07:53:17.458Z,955.3462524
2023-04-19T07:54:18.566Z,955.3375854
2023-04-19T07:55:19.187Z,955.3418579
2023-04-19T07:56:20.913Z,955.3226318
2023-04-19T07:57:21.818Z,955.3423462
2023-04-19T07:58:23.289Z,955.3537598
2023-04-19T07:59:25.120Z,955.3303223
2023-04-19T08:00:26.894Z,955.3087769
2023-04-19T08:01:27.903Z,955.2681274
2023-04-19T08:03:02.622Z,955.2893066
2023-04-19T08:04:04.303Z,955.2626343
2023-04-19T08:05:05.526Z,955.2692261
2023-04-19T08:06:06.216Z,955.295166
2023-04-19T08:07:07.190Z,955.281189
2023-04-19T08:08:08.034Z,955.2578125
2023-04-19T08:09:09.876Z,955.2626343
2023-04-19T08:10:11.483Z,955.2242432
2023-04-19T08:11:12.489Z,955.2459106
2023-04-19T08:12:26.302Z,955.2578735
2023-04-19T08:13:15.879Z,955.2536011
2023-04-19T08:14:30.471Z,955.2460938
2023-04-19T08:17:26.819Z,955.2573242
2023-04-19T08:18:21.419Z,955.2943726
2023-04-19T08:19:22.949Z,955.2722168
2023-04-19T08:20:23.950Z,955.2683105
2023-04-19T08:21:31.269Z,955.229248
2023-04-19T08:22:27.086Z,955.2683105
2023-04-19T08:23:34.947Z,955.2460938
2023-04-19T08:24:29.063Z,955.2493896
2023-04-19T08:26:01.439Z,955.265625
2023-04-19T08:27:03.337Z,955.2884521
2023-04-19T08:28:05.159Z,955.298584
2023-04-19T08:29:06.082Z,955.2357788
2023-04-19T08:30:07.955Z,955.2574463
2023-04-19T08:31:08.869Z,955.2509155
2023-04-19T08:32:10.500Z,955.2449341
2023-04-19T08:33:11.487Z,955.2313232
2023-04-19T08:34:12.913Z,955.2762451
2023-04-19T08:35:13.841Z,955.2960815
2023-04-19T08:36:19.437Z,955.2956543
2023-04-19T08:37:16.971Z,955.277832
2023-04-19T08:38:17.897Z,955.3178711
2023-04-19T08:39:31.698Z,955.2597046
2023-04-19T08:40:22.020Z,955.2786865
2023-04-19T08:41:23.929Z,955.2667236
2023-04-19T08:42:35.698Z,955.2683716
2023-04-19T08:43:26.083Z,955.2050171
2023-04-19T08:44:36.067Z,955.2672119
2023-04-19T08:45:29.002Z,955.2156372
2023-04-19T08:47:00.333Z,955.2124023
2023-04-19T08:48:02.817Z,955.2042847
2023-04-19T08:49:04.702Z,955.2177124
2023-04-19T08:50:17.394Z,955.2285156
2023-04-19T08:51:08.669Z,955.1967163
2023-04-19T08:52:10.622Z,955.2182007
2023-04-19T08:54:14.418Z,955.1861572
2023-04-19T08:55:16.032Z,955.1894531
2023-04-19T08:56:28.074Z,955.2078247
2023-04-19T08:57:18.976Z,955.1783447
2023-04-19T08:58:32.907Z,955.1784668
2023-04-19T08:59:22.269Z,955.1414185
2023-04-19T09:00:23.877Z,955.1791992
2023-04-19T09:02:26.764Z,955.1741943
2023-04-19T09:03:27.722Z,955.0748291
2023-04-19T09:06:01.509Z,955.072998
2023-04-19T09:07:02.405Z,955.0545044
2023-04-19T09:08:03.365Z,955.0461426
2023-04-19T09:09:04.334Z,955.0427856
2023-04-19T09:10:06.935Z,955.0338135
2023-04-19T09:11:08.728Z,955.0407715
2023-04-19T09:12:09.676Z,955.0367432
2023-04-19T09:13:10.879Z,955.0349731
2023-04-19T09:14:11.898Z,955.0418701
2023-04-19T09:15:12.881Z,954.9983521
2023-04-19T09:16:14.578Z,955.0167236
2023-04-19T09:17:15.441Z,954.9751587
2023-04-19T09:18:17.377Z,954.973877
2023-04-19T09:19:24.304Z,954.970459
2023-04-19T09:20:20.452Z,954.9311523
2023-04-19T09:21:22.041Z,954.9319458
2023-04-19T09:22:23.142Z,954.932373
2023-04-19T09:23:25.097Z,954.9207764
2023-04-19T09:24:25.978Z,954.9677124
2023-04-19T09:25:39.089Z,954.9229736
2023-04-19T09:26:27.913Z,954.8989258
2023-04-19T09:27:29.375Z,954.8900146
2023-04-19T09:29:01.444Z,954.8597412
2023-04-19T09:30:03.584Z,954.8904419
2023-04-19T09:31:20.422Z,954.8934326
2023-04-19T09:32:05.891Z,954.8270264
2023-04-19T09:33:07.110Z,954.8418579
2023-04-19T09:34:07.984Z,954.8633423
2023-04-19T09:35:09.315Z,954.8181152
2023-04-19T09:36:11.847Z,954.7718506
2023-04-19T09:37:17.259Z,954.7739258
2023-04-19T09:38:13.025Z,954.7947388
2023-04-19T09:39:15.551Z,954.7729492
2023-04-19T09:40:16.885Z,954.7293701
2023-04-19T09:41:19.112Z,954.7245483
2023-04-19T09:42:36.012Z,954.7047119
2023-04-19T09:43:53.271Z,954.6821899
2023-04-19T09:45:01.773Z,954.7001343
2023-04-19T09:45:30.951Z,954.656189
2023-04-19T09:46:25.194Z,954.6776733
2023-04-19T09:47:26.223Z,954.6884155
2023-04-19T09:48:27.415Z,954.6695557
2023-04-19T09:49:41.591Z,954.6862793
2023-04-19T09:51:04.983Z,954.6793823
2023-04-19T09:52:03.911Z,954.6373291
2023-04-19T09:53:04.864Z,954.6532593
2023-04-19T09:54:06.100Z,954.6325073
2023-04-19T09:55:17.723Z,954.6240845
2023-04-19T09:56:09.427Z,954.5894775
2023-04-19T09:57:10.901Z,954.6021729
2023-04-19T09:58:13.281Z,954.5829468
2023-04-19T09:59:20.812Z,954.5842285
2023-04-19T10:00:16.423Z,954.6090698
2023-04-19T10:01:17.775Z,954.5751343
2023-04-19T10:02:20.515Z,954.5395508
2023-04-19T10:03:22.541Z,954.5861206
2023-04-19T10:04:31.747Z,954.5643921
2023-04-19T10:05:24.956Z,954.5564575
2023-04-19T10:06:45.958Z,954.4938965
2023-04-19T10:07:30.796Z,954.4818115
2023-04-19T10:09:00.224Z,954.4625854
2023-04-19T10:10:16.122Z,954.4276733
2023-04-19T10:11:03.883Z,954.4570313
2023-04-19T10:12:24.032Z,954.4221191
2023-04-19T10:13:18.834Z,954.4377441
2023-04-19T10:14:08.998Z,954.4543457
2023-04-19T10:15:10.993Z,954.4240723
2023-04-19T10:16:19.502Z,954.4171753
2023-04-19T10:17:14.491Z,954.3861694
2023-04-19T10:18:15.967Z,954.3929443
2023-04-19T10:19:17.289Z,954.366272
2023-04-19T10:20:18.138Z,954.385498
2023-04-19T10:21:19.890Z,954.3244019
2023-04-19T10:22:21.041Z,954.3328857
2023-04-19T10:23:22.147Z,954.3048706
2023-04-19T10:24:23.273Z,954.3018188
2023-04-19T10:25:24.267Z,954.2768555
2023-04-19T10:26:25.934Z,954.2791138
2023-04-19T10:27:26.884Z,954.2754517
2023-04-19T10:28:29.160Z,954.2312622
2023-04-19T10:30:01.646Z,954.2357788
2023-04-19T10:31:03.493Z,954.2301636
2023-04-19T10:32:04.387Z,954.1921997
2023-04-19T10:33:05.434Z,954.1559448
2023-04-19T10:34:06.928Z,954.1587524
2023-04-19T10:35:08.060Z,954.1811523
2023-04-19T10:36:10.080Z,954.1621094
2023-04-19T10:37:11.083Z,954.1851807
2023-04-19T10:38:13.092Z,954.1748657
2023-04-19T10:39:14.603Z,954.1855469
2023-04-19T10:40:16.867Z,954.1240845
2023-04-19T10:41:19.075Z,954.140564
2023-04-19T10:42:19.477Z,954.0770874
2023-04-19T10:43:20.638Z,954.0691528
2023-04-19T10:44:21.877Z,954.1130981
2023-04-19T10:45:22.743Z,954.0767212
2023-04-19T10:46:24.578Z,954.138855
2023-04-19T10:47:26.113Z,954.0878296
2023-04-19T10:48:28.198Z,954.059082
2023-04-19T10:49:59.978Z,954.0084229
2023-04-19T10:51:01.006Z,954.0501709
2023-04-19T10:52:01.963Z,954.0550537
2023-04-19T10:53:03.218Z,954.0551758
2023-04-19T10:54:04.288Z,953.9953613
2023-04-19T10:55:05.366Z,953.961853
2023-04-19T10:56:06.937Z,953.9697876
2023-04-19T10:57:08.020Z,953.9417725
2023-04-19T10:58:09.142Z,953.9243774
2023-04-19T10:59:10.188Z,953.9110718
2023-04-19T11:00:11.268Z,953.9590454
2023-04-19T11:01:13.090Z,953.9689331
2023-04-19T11:02:14.506Z,953.9036865
2023-04-19T11:03:16.665Z,953.890625
2023-04-19T11:04:18.609Z,953.8320923
2023-04-19T11:05:20.380Z,953.8411865
2023-04-19T11:06:21.463Z,953.831543
2023-04-19T11:07:22.625Z,953.8079834
2023-04-19T11:08:24.507Z,953.7901611
2023-04-19T11:09:26.420Z,953.7907104
2023-04-19T11:10:27.939Z,953.7670898
2023-04-19T11:12:00.467Z,953.762207
2023-04-19T11:13:01.588Z,953.7637329
2023-04-19T11:14:02.677Z,953.774292
2023-04-19T11:15:03.583Z,953.7459106
2023-04-19T11:16:04.956Z,953.7285767
2023-04-19T11:17:06.617Z,953.7260742
2023-04-19T11:18:12.981Z,953.704834
2023-04-19T11:19:08.589Z,953.6992188
2023-04-19T11:20:09.549Z,953.7008057
2023-04-19T11:21:11.363Z,953.670105
2023-04-19T11:22:12.967Z,953.6358032
2023-04-19T11:23:13.987Z,953.6571655
2023-04-19T11:24:14.965Z,953.6359253
2023-04-19T11:25:17.207Z,953.605957
2023-04-19T11:26:18.175Z,953.5864868
2023-04-19T11:27:19.470Z,953.6010742